createdAt,value
2022-10-23T00:03:04.788Z,13.2
2022-10-23T00:07:14.282Z,14.3
2022-10-23T00:09:17.438Z,13.1
2022-10-23T00:11:20.545Z,12.9
2022-10-23T00:13:23.680Z,18.7
2022-10-23T00:15:26.818Z,15
2022-10-23T00:19:33.067Z,26.8
2022-10-23T00:21:39.432Z,33.2
2022-10-23T00:23:42.559Z,18.4
2022-10-23T00:25:45.683Z,18.4
2022-10-23T00:26:48.844Z,24
2022-10-23T00:28:51.993Z,23.7
2022-10-23T00:30:55.129Z,27.8
2022-10-23T00:37:07.707Z,19.3
2022-10-23T00:39:12.409Z,23.6
2022-10-23T00:41:15.506Z,20.6
2022-10-23T00:43:18.619Z,32.5
2022-10-23T00:45:21.762Z,27.1
2022-10-23T00:47:24.877Z,30.3
2022-10-23T00:49:32.551Z,15.9
2022-10-23T00:51:34.339Z,14.7
2022-10-23T00:53:37.491Z,16.2
2022-10-23T00:55:40.632Z,19.3
2022-10-23T00:57:43.735Z,26.6
2022-10-23T00:59:46.878Z,35.8
2022-10-23T01:01:51.380Z,48.2
2022-10-23T01:03:56.343Z,45.3
2022-10-23T01:05:59.474Z,49.5
2022-10-23T01:08:02.616Z,16.1
2022-10-23T01:10:05.744Z,17.2
2022-10-23T01:12:08.881Z,18.2
2022-10-23T01:14:11.977Z,15.7
2022-10-23T01:16:15.109Z,15.2
2022-10-23T01:18:21.476Z,16.5
2022-10-23T01:20:24.623Z,19.3
2022-10-23T01:22:27.784Z,16.1
2022-10-23T01:39:16.637Z,13.2
2022-10-23T01:41:19.751Z,11.8
2022-10-23T01:43:22.868Z,13.2
2022-10-23T01:45:29.234Z,13.1
2022-10-23T01:47:32.357Z,13.4
2022-10-23T01:49:35.477Z,13.2
2022-10-23T01:51:38.622Z,10.8
2022-10-23T01:53:41.727Z,12.3
2022-10-23T01:55:44.885Z,12.7
2022-10-23T01:57:48.145Z,14.4
2022-10-23T01:59:54.345Z,13
2022-10-23T02:01:57.575Z,11.8
2022-10-23T02:04:00.597Z,13.7
2022-10-23T02:06:03.740Z,14.7
2022-10-23T02:08:07.003Z,19
2022-10-23T02:10:09.961Z,13.6
2022-10-23T02:12:13.100Z,15
2022-10-23T02:14:19.468Z,17.4
2022-10-23T02:16:22.586Z,15
2022-10-23T02:18:25.709Z,18.3
2022-10-23T02:19:28.880Z,13.9
2022-10-23T02:21:32.020Z,17.2
2022-10-23T02:23:35.178Z,15.4
2022-10-23T02:25:38.284Z,14.8
2022-10-23T02:27:44.639Z,19.5
2022-10-23T02:29:47.782Z,23.1
2022-10-23T02:31:50.932Z,18.3
2022-10-23T02:33:54.017Z,49.7
2022-10-23T02:35:57.142Z,19.2
2022-10-23T02:38:00.273Z,18.2
2022-10-23T02:40:03.379Z,18.9
2022-10-23T02:42:09.741Z,14.6
2022-10-23T02:44:12.866Z,16.2
2022-10-23T02:46:15.980Z,16.4
2022-10-23T02:48:19.105Z,14.5
2022-10-23T02:50:22.231Z,13.7
2022-10-23T02:52:25.354Z,12.1
2022-10-23T02:54:28.491Z,12.9
2022-10-23T02:56:37.914Z,13.4
2022-10-23T02:58:37.917Z,14.9
2022-10-23T03:00:41.050Z,12.7
2022-10-23T03:02:44.157Z,12.4
2022-10-23T03:04:47.280Z,11.4
2022-10-23T03:06:50.394Z,15.4
2022-10-23T03:13:02.974Z,15.4
2022-10-23T03:16:09.261Z,15.5
2022-10-23T03:18:12.378Z,13.8
2022-10-23T03:20:15.491Z,14.4
2022-10-23T03:22:18.625Z,13.1
2022-10-23T03:26:28.082Z,15.1
2022-10-23T03:28:31.191Z,12.5
2022-10-23T03:32:37.434Z,16.1
2022-10-23T03:34:40.551Z,14
2022-10-23T03:36:43.660Z,13.4
2022-10-23T03:38:49.980Z,13.9
2022-10-23T03:40:53.107Z,12
2022-10-23T03:42:56.237Z,12.4
2022-10-23T03:44:59.364Z,12.8
2022-10-23T03:47:02.475Z,12.6
2022-10-23T03:49:05.598Z,11.5
2022-10-23T03:51:08.704Z,12.1
2022-10-23T03:53:15.039Z,10.7
2022-10-23T03:55:18.154Z,11.1
2022-10-23T03:57:21.267Z,10.6
2022-10-23T03:59:24.388Z,10.7
2022-10-23T04:01:27.652Z,10.2
2022-10-23T04:03:30.633Z,10.6
2022-10-23T04:05:33.738Z,10.9
2022-10-23T04:07:40.069Z,9.6
2022-10-23T04:09:43.208Z,13
2022-10-23T04:11:46.361Z,11.7
2022-10-23T04:12:49.474Z,10.2
2022-10-23T04:14:52.603Z,10.8
2022-10-23T04:16:55.707Z,11.1
2022-10-23T04:18:58.817Z,10.1
2022-10-23T04:21:05.168Z,13.9
2022-10-23T04:23:08.284Z,11.3
2022-10-23T04:25:11.446Z,11.4
2022-10-23T04:27:14.538Z,9.9
2022-10-23T04:29:17.643Z,10.2
2022-10-23T04:31:20.754Z,11
2022-10-23T04:33:23.860Z,10.5
2022-10-23T04:35:30.223Z,11.8
2022-10-23T04:37:33.333Z,12.2
2022-10-23T04:39:36.434Z,13.9
2022-10-23T04:41:39.574Z,13.1
2022-10-23T04:43:42.701Z,10.2
2022-10-23T04:45:45.814Z,12.2
2022-10-23T04:47:48.935Z,8
2022-10-23T04:49:55.270Z,15.6
2022-10-23T04:58:07.732Z,13.6
2022-10-23T05:00:10.840Z,11.8
2022-10-23T05:02:13.958Z,10.7
2022-10-23T05:04:20.296Z,13.4
2022-10-23T05:08:26.536Z,11.8
2022-10-23T05:10:50.605Z,11.2
2022-10-23T05:12:53.709Z,11.3
2022-10-23T05:14:56.834Z,8.4
2022-10-23T05:17:03.182Z,8.8
2022-10-23T05:19:06.301Z,10
2022-10-23T05:25:15.673Z,10.4
2022-10-23T05:27:18.780Z,9.6
2022-10-23T05:29:21.912Z,9
2022-10-23T05:31:28.266Z,9.3
2022-10-23T05:33:31.376Z,8.1
2022-10-23T05:35:34.494Z,8.5
2022-10-23T05:37:37.633Z,6.2
2022-10-23T05:39:40.738Z,8.5
2022-10-23T05:41:43.871Z,7.6
2022-10-23T05:48:05.671Z,7.4
2022-10-23T05:49:59.578Z,9.3
2022-10-23T05:52:02.748Z,8.4
2022-10-23T05:54:05.838Z,7.4
2022-10-23T05:56:08.962Z,8.6
2022-10-23T06:02:21.662Z,7.5
2022-10-23T06:05:27.955Z,9.3
2022-10-23T06:07:33.571Z,7.6
2022-10-23T06:09:34.380Z,8.4
2022-10-23T06:11:37.304Z,9.2
2022-10-23T06:13:43.703Z,8.2
2022-10-23T06:15:46.758Z,8.2
2022-10-23T06:17:49.905Z,6.7
2022-10-23T06:19:53.022Z,7.7
2022-10-23T06:21:56.139Z,7.5
2022-10-23T06:23:59.265Z,6.8
2022-10-23T06:26:02.390Z,8.8
2022-10-23T06:28:08.721Z,9.1
2022-10-23T06:30:11.841Z,7.9
2022-10-23T06:32:14.960Z,7.9
2022-10-23T06:34:19.690Z,9.5
2022-10-23T06:36:22.766Z,8.1
2022-10-23T06:38:25.893Z,6.9
2022-10-23T06:40:29.178Z,7.5
2022-10-23T06:42:35.342Z,7.6
2022-10-23T06:50:47.876Z,7.4
2022-10-23T06:57:00.470Z,7.7
2022-10-23T07:01:06.903Z,7.4
2022-10-23T07:06:16.141Z,10.1
2022-10-23T07:08:19.259Z,8.6
2022-10-23T07:10:25.596Z,10.9
2022-10-23T07:12:28.731Z,10.6
2022-10-23T07:14:31.876Z,9.6
2022-10-23T07:16:34.990Z,7.6
2022-10-23T07:18:38.131Z,8.2
2022-10-23T07:20:41.249Z,9.1
2022-10-23T07:22:44.801Z,8.1
2022-10-23T07:24:50.732Z,9.1
2022-10-23T07:26:53.833Z,7.8
2022-10-23T07:28:56.980Z,9.6
2022-10-23T07:31:00.095Z,9.6
2022-10-23T07:33:03.238Z,7.9
2022-10-23T07:35:06.424Z,10.2
2022-10-23T07:37:09.485Z,9.4
2022-10-23T07:39:15.834Z,9.9
2022-10-23T07:41:18.942Z,7.6
2022-10-23T07:43:22.119Z,10.3
2022-10-23T07:45:25.195Z,10.4
2022-10-23T07:47:28.325Z,10.2
2022-10-23T07:49:31.442Z,8
2022-10-23T07:51:34.583Z,10
2022-10-23T07:53:40.920Z,8.7
2022-10-23T07:55:44.042Z,9.3
2022-10-23T07:57:47.186Z,7.1
2022-10-23T07:58:50.340Z,9.8
2022-10-23T08:00:53.469Z,9.4
2022-10-23T08:02:56.631Z,9.3
2022-10-23T08:04:59.713Z,7.7
2022-10-23T08:07:06.052Z,7.9
2022-10-23T08:09:09.186Z,9.8
2022-10-23T08:11:12.303Z,6.4
2022-10-23T08:13:15.431Z,6.6
2022-10-23T08:15:18.562Z,6.1
2022-10-23T08:17:24.022Z,6.1
2022-10-23T08:19:24.803Z,6.2
2022-10-23T08:21:31.139Z,7.5
2022-10-23T08:23:34.319Z,5.1
2022-10-23T08:25:37.400Z,4.8
2022-10-23T08:31:46.809Z,5.6
2022-10-23T08:37:59.380Z,3.6
2022-10-23T08:40:02.539Z,2.7
2022-10-23T08:42:05.682Z,3.6
2022-10-23T08:44:08.788Z,3.7
2022-10-23T08:46:11.915Z,3.9
2022-10-23T08:48:15.000Z,4.5
2022-10-23T08:50:21.537Z,3.4
2022-10-23T08:54:27.620Z,4.3
2022-10-23T08:56:51.210Z,4.1
2022-10-23T08:58:54.349Z,3.5
2022-10-23T09:00:57.477Z,3.5
2022-10-23T09:03:03.728Z,5
2022-10-23T09:05:06.835Z,3.9
2022-10-23T09:09:13.119Z,3.4
2022-10-23T09:11:16.247Z,4.2
2022-10-23T09:13:19.361Z,3.9
2022-10-23T09:17:28.864Z,3.4
2022-10-23T09:19:31.982Z,2.2
2022-10-23T09:21:35.019Z,5.7
2022-10-23T09:23:38.151Z,2.4
2022-10-23T09:25:41.179Z,3.5
2022-10-23T09:27:44.762Z,2.4
2022-10-23T09:29:47.433Z,4
2022-10-23T09:31:53.596Z,2.9
2022-10-23T09:33:56.626Z,2.7
2022-10-23T09:35:59.643Z,3
2022-10-23T09:38:02.690Z,3.6
2022-10-23T09:40:05.702Z,2.4
2022-10-23T09:42:08.736Z,1.7
2022-10-23T09:44:11.770Z,1.4
2022-10-23T09:46:17.900Z,2.8
2022-10-23T09:48:20.909Z,2.1
2022-10-23T09:50:23.973Z,1.4
2022-10-23T09:51:27.019Z,3.2
2022-10-23T09:53:30.053Z,2.5
2022-10-23T09:55:33.083Z,3
2022-10-23T09:57:36.104Z,2.9
2022-10-23T09:59:42.250Z,2.2
2022-10-23T10:01:45.502Z,3.2
2022-10-23T10:03:48.298Z,3
2022-10-23T10:09:57.392Z,3.7
2022-10-23T10:12:00.406Z,2.2
2022-10-23T10:14:06.560Z,2.3
2022-10-23T10:16:09.585Z,2.7
2022-10-23T10:18:12.626Z,2.7
2022-10-23T10:20:15.636Z,1.7
2022-10-23T10:22:18.655Z,2.1
2022-10-23T10:24:21.686Z,2.3
2022-10-23T10:26:24.765Z,1.9
2022-10-23T10:28:30.860Z,1.8
2022-10-23T10:30:33.890Z,2.3
2022-10-23T10:32:36.893Z,1.6
2022-10-23T10:34:39.926Z,1.1
2022-10-23T10:36:42.934Z,2.1
2022-10-23T10:38:45.965Z,2.2
2022-10-23T10:40:49.002Z,1.9
2022-10-23T10:42:55.144Z,3.4
2022-10-23T10:44:58.182Z,2.3
2022-10-23T10:47:01.191Z,1.8
2022-10-23T10:52:10.292Z,1.5
2022-10-23T10:56:19.458Z,1.2
2022-10-23T10:58:22.486Z,2.1
2022-10-23T11:00:25.506Z,1.5
2022-10-23T11:02:28.532Z,1.2
2022-10-23T11:04:31.543Z,2.1
2022-10-23T11:06:34.576Z,1.9
2022-10-23T11:08:49.906Z,1.8
2022-10-23T11:10:43.722Z,1.8
2022-10-23T11:12:46.733Z,1.1
2022-10-23T11:14:49.745Z,1.9
2022-10-23T11:16:52.780Z,2.1
2022-10-23T11:18:55.792Z,1
2022-10-23T11:20:58.829Z,2.2
2022-10-23T11:25:07.966Z,0.8
2022-10-23T11:27:11.002Z,0.7
2022-10-23T11:31:17.039Z,0.8
2022-10-23T11:33:20.048Z,2
2022-10-23T11:37:26.081Z,1.5
2022-10-23T11:39:32.206Z,1.6
2022-10-23T11:41:35.244Z,1.5
2022-10-23T11:43:38.249Z,0.8
2022-10-23T11:44:41.329Z,1.3
2022-10-23T11:46:44.534Z,1.2
2022-10-23T11:48:47.363Z,0.7
2022-10-23T11:50:50.386Z,1.7
2022-10-23T11:54:59.517Z,2.2
2022-10-23T11:59:05.536Z,1.7
2022-10-23T12:01:08.578Z,1.3
2022-10-23T12:03:11.577Z,0.8
2022-10-23T12:05:14.599Z,0.6
2022-10-23T12:07:20.747Z,0.8
2022-10-23T12:09:23.745Z,0.3
2022-10-23T12:11:27.661Z,0.8
2022-10-23T12:13:29.763Z,1.2
2022-10-23T12:15:32.770Z,0.5
2022-10-23T12:17:35.823Z,1
2022-10-23T12:19:38.821Z,0.4
2022-10-23T12:21:44.941Z,1.3
2022-10-23T12:23:48.415Z,0.8
2022-10-23T12:25:50.957Z,1.1
2022-10-23T12:27:53.975Z,1.5
2022-10-23T12:29:58.529Z,0.5
2022-10-23T12:32:01.481Z,0.6
2022-10-23T12:34:04.491Z,1.5
2022-10-23T12:36:10.598Z,1
2022-10-23T12:38:13.590Z,0.5
2022-10-23T12:40:16.582Z,0.3
2022-10-23T12:42:46.086Z,1.5
2022-10-23T12:44:48.977Z,1.1
2022-10-23T12:46:51.964Z,0.9
2022-10-23T12:48:58.110Z,0.3
2022-10-23T12:51:01.104Z,0.6
2022-10-23T12:55:07.080Z,0.8
2022-10-23T12:57:10.080Z,0.3
2022-10-23T12:59:13.091Z,0.5
2022-10-23T13:01:16.148Z,1.5
2022-10-23T13:03:22.185Z,1.4
2022-10-23T13:05:25.167Z,1.1
2022-10-23T13:07:28.167Z,0.6
2022-10-23T13:09:31.166Z,0.9
2022-10-23T13:11:34.184Z,1.5
2022-10-23T13:13:37.178Z,0.6
2022-10-23T13:15:40.184Z,1.4
2022-10-23T13:17:46.694Z,0.6
2022-10-23T13:19:49.273Z,0.6
2022-10-23T13:21:52.284Z,0.9
2022-10-23T13:23:55.393Z,0.5
2022-10-23T13:25:58.266Z,1
2022-10-23T13:28:01.260Z,0.6
2022-10-23T13:30:06.141Z,1.3
2022-10-23T13:32:10.381Z,1.1
2022-10-23T13:34:13.360Z,0.6
2022-10-23T13:36:16.342Z,1
2022-10-23T13:37:19.413Z,1.1
2022-10-23T13:39:22.471Z,0.8
2022-10-23T13:41:25.407Z,1.8
2022-10-23T13:43:28.409Z,1.4
2022-10-23T13:45:34.506Z,0.6
2022-10-23T13:47:37.500Z,0.8
2022-10-23T13:49:40.499Z,1.2
2022-10-23T13:51:43.502Z,1.4
2022-10-23T13:53:46.476Z,0.4
2022-10-23T13:55:51.521Z,0.6
2022-10-23T13:57:52.457Z,1.6
2022-10-23T13:59:58.579Z,0.1
2022-10-23T14:02:01.683Z,2.2
2022-10-23T14:04:04.522Z,0.2
2022-10-23T14:06:07.550Z,1.1
2022-10-23T14:08:10.543Z,1.2
2022-10-23T14:10:13.544Z,0.9
2022-10-23T14:12:16.526Z,0.9
2022-10-23T14:16:25.642Z,0.6
2022-10-23T14:18:28.643Z,0.2
2022-10-23T14:20:31.708Z,0.7
2022-10-23T14:22:34.618Z,0.6
2022-10-23T14:24:37.623Z,2.3
2022-10-23T14:28:46.731Z,1.2
2022-10-23T14:30:49.718Z,0.4
2022-10-23T14:32:52.729Z,0.9
2022-10-23T14:35:58.799Z,0.7
2022-10-23T14:42:10.869Z,0.9
2022-10-23T14:44:13.873Z,0.7
2022-10-23T14:46:16.856Z,1.2
2022-10-23T14:48:19.847Z,0.8
2022-10-23T14:50:22.862Z,0.5
2022-10-23T14:52:25.826Z,0.7
2022-10-23T14:54:28.821Z,0.6
2022-10-23T14:58:37.907Z,3.9
2022-10-23T15:00:40.918Z,1.9
2022-10-23T15:06:49.932Z,0.6
2022-10-23T15:08:52.900Z,0.4
2022-10-23T15:10:59.048Z,0.6
2022-10-23T15:13:02.029Z,0.9
2022-10-23T15:15:05.017Z,1.2
2022-10-23T15:17:09.766Z,0.5
2022-10-23T15:19:13.743Z,0.5
2022-10-23T15:21:14.031Z,0.5
2022-10-23T15:29:29.180Z,0.6
2022-10-23T15:30:32.239Z,1.5
2022-10-23T15:32:35.254Z,0.9
2022-10-23T15:34:38.246Z,1.2
2022-10-23T15:36:41.247Z,0.4
2022-10-23T15:38:47.391Z,0.9
2022-10-23T15:40:50.362Z,2.4
2022-10-23T15:42:53.393Z,3.9
2022-10-23T15:44:56.355Z,0.6
2022-10-23T15:46:59.369Z,0.8
2022-10-23T15:49:02.376Z,0.8
2022-10-23T15:51:05.375Z,0.5
2022-10-23T15:53:11.686Z,1.8
2022-10-23T15:55:14.517Z,1.2
2022-10-23T15:57:17.515Z,1.4
2022-10-23T15:59:20.519Z,35
2022-10-23T16:01:23.834Z,2.3
2022-10-23T16:03:26.562Z,1.6
2022-10-23T16:05:29.569Z,2.3
2022-10-23T16:07:35.707Z,0.7
2022-10-23T16:09:38.710Z,0.6
2022-10-23T16:11:41.721Z,2.7
2022-10-23T16:13:44.730Z,17.2
2022-10-23T16:15:47.765Z,1.6
2022-10-23T16:17:50.787Z,1.2
2022-10-23T16:19:53.773Z,2.4
2022-10-23T16:21:59.917Z,2.1
2022-10-23T16:28:35.362Z,2
2022-10-23T16:30:38.386Z,1.1
2022-10-23T16:32:41.404Z,1.2
2022-10-23T16:34:47.520Z,2.5
2022-10-23T16:36:50.533Z,0.7
2022-10-23T16:38:53.559Z,1.9
2022-10-23T16:40:56.583Z,1.2
2022-10-23T16:42:59.597Z,2.3
2022-10-23T16:45:02.619Z,0.3
2022-10-23T16:47:05.632Z,1.1
2022-10-23T16:49:11.737Z,1
2022-10-23T16:51:14.760Z,3.2
2022-10-23T16:53:17.777Z,1.4
2022-10-23T16:55:20.792Z,1
2022-10-23T16:57:23.796Z,1.4
2022-10-23T16:59:26.795Z,4.4
2022-10-23T17:01:29.918Z,4.2
2022-10-23T17:03:35.939Z,1.9
2022-10-23T17:05:38.923Z,2.5
2022-10-23T17:07:42.253Z,2.5
2022-10-23T17:09:44.941Z,2.2
2022-10-23T17:11:47.970Z,2.3
2022-10-23T17:13:53.656Z,1.1
2022-10-23T17:15:53.963Z,1.6
2022-10-23T17:18:00.105Z,1
2022-10-23T17:20:03.093Z,3.5
2022-10-23T17:22:06.090Z,1.6
2022-10-23T17:23:09.143Z,2.6
2022-10-23T17:25:12.161Z,0.9
2022-10-23T17:27:15.172Z,2.7
2022-10-23T17:29:18.193Z,3.1
2022-10-23T17:31:24.320Z,6.1
2022-10-23T17:33:27.316Z,1.7
2022-10-23T17:35:30.456Z,1.8
2022-10-23T17:37:33.358Z,2.3
2022-10-23T17:39:36.357Z,1.9
2022-10-23T17:41:39.359Z,2
2022-10-23T17:43:42.352Z,0.9
2022-10-23T17:45:48.527Z,2.5
2022-10-23T17:47:51.482Z,1.5
2022-10-23T17:49:54.598Z,3.2
2022-10-23T17:51:57.520Z,3.8
2022-10-23T17:54:00.529Z,1.6
2022-10-23T17:56:03.527Z,1.8
2022-10-23T17:58:06.556Z,1.4
2022-10-23T18:00:12.466Z,3.2
2022-10-23T18:02:15.604Z,3.2
2022-10-23T18:04:18.513Z,0.4
2022-10-23T18:06:24.457Z,1.3
2022-10-23T18:08:24.529Z,2.5
2022-10-23T18:10:27.545Z,1.2
2022-10-23T18:12:30.567Z,0.7
2022-10-23T18:18:42.735Z,1.3
2022-10-23T18:19:45.790Z,1.7
2022-10-23T18:21:48.818Z,0.5
2022-10-23T18:23:53.404Z,1.3
2022-10-23T18:25:56.385Z,0.4
2022-10-23T18:28:02.707Z,1.3
2022-10-23T18:30:05.522Z,2.7
2022-10-23T18:32:08.516Z,2.7
2022-10-23T18:34:11.531Z,0.9
2022-10-23T18:36:14.549Z,0.9
2022-10-23T18:40:23.128Z,1.9
2022-10-23T18:46:32.716Z,0.2
2022-10-23T18:48:35.737Z,1
2022-10-23T18:50:38.823Z,1.6
2022-10-23T18:52:41.779Z,2.1
2022-10-23T18:54:44.764Z,0.8
2022-10-23T18:56:50.915Z,1.1
2022-10-23T19:02:59.961Z,0.7
2022-10-23T19:05:02.992Z,0.5
2022-10-23T19:07:06.017Z,1.1
2022-10-23T19:09:09.030Z,0.8
2022-10-23T19:11:15.162Z,1
2022-10-23T19:13:18.171Z,3.7
2022-10-23T19:15:21.194Z,1.3
2022-10-23T19:16:24.249Z,1.5
2022-10-23T19:20:30.331Z,0.5
2022-10-23T19:22:33.318Z,0.5
2022-10-23T19:26:42.461Z,1.7
2022-10-23T19:28:45.505Z,0.3
2022-10-23T19:30:48.480Z,0.5
2022-10-23T19:32:51.508Z,1
2022-10-23T19:34:54.521Z,0.4
2022-10-23T19:36:57.547Z,0.8
2022-10-23T19:39:03.660Z,4.2
2022-10-23T19:41:06.688Z,0.3
2022-10-23T19:43:09.700Z,0.7
2022-10-23T19:45:12.717Z,1.2
2022-10-23T19:47:15.725Z,1.4
2022-10-23T19:55:30.867Z,0.9
2022-10-23T20:03:42.924Z,1
2022-10-23T20:05:45.935Z,2.8
2022-10-23T20:07:52.067Z,0.7
2022-10-23T20:09:55.082Z,1.7
2022-10-23T20:11:58.096Z,2.1
2022-10-23T20:14:27.544Z,1.5
2022-10-23T20:16:30.551Z,1.3
2022-10-23T20:18:33.549Z,1.9
2022-10-23T20:20:39.688Z,1.2
2022-10-23T20:22:44.116Z,1.5
2022-10-23T20:26:48.726Z,2.2
2022-10-23T20:28:51.749Z,0.3
2022-10-23T20:30:54.799Z,0.2
2022-10-23T20:32:57.802Z,2.4
2022-10-23T20:35:04.002Z,1.2
2022-10-23T20:37:07.045Z,1.2
2022-10-23T20:39:10.067Z,0.2
2022-10-23T20:41:13.089Z,0.5
2022-10-23T20:43:16.141Z,2
2022-10-23T20:47:22.149Z,0.4
2022-10-23T20:49:28.289Z,0.8
2022-10-23T20:51:31.351Z,2.4
2022-10-23T20:53:34.331Z,1
2022-10-23T20:55:37.358Z,2.7
2022-10-23T20:57:40.377Z,1
2022-10-23T20:59:43.406Z,1.1
2022-10-23T21:01:46.514Z,0.3
2022-10-23T21:03:52.553Z,1.5
2022-10-23T21:05:55.597Z,0.5
2022-10-23T21:09:01.732Z,0.6
2022-10-23T21:11:04.706Z,0.2
2022-10-23T21:13:07.720Z,0.2
2022-10-23T21:15:10.902Z,0.4
2022-10-23T21:17:16.913Z,0.9
2022-10-23T21:19:19.925Z,0.2
2022-10-23T21:21:22.924Z,0.4
2022-10-23T21:23:25.968Z,0.2
2022-10-23T21:25:29.101Z,0.2
2022-10-23T21:27:32.020Z,0.2
2022-10-23T21:29:35.017Z,0.1
2022-10-23T21:31:41.156Z,0.2
2022-10-23T21:33:44.194Z,0.5
2022-10-23T21:35:58.089Z,0.5
2022-10-23T21:37:50.249Z,0.4
2022-10-23T21:39:53.283Z,0.5
2022-10-23T21:41:56.289Z,0.1
2022-10-23T21:43:59.317Z,0.1
2022-10-23T21:46:05.445Z,0.2
2022-10-23T21:48:08.493Z,0.3
2022-10-23T21:50:11.483Z,0.2
2022-10-23T21:52:16.300Z,0.2
2022-10-23T21:54:17.536Z,0.4
2022-10-23T21:56:20.576Z,0.2
2022-10-23T21:58:23.602Z,0
2022-10-23T22:00:29.772Z,0.1
2022-10-23T22:04:35.805Z,0.7
2022-10-23T22:05:38.895Z,0.6
2022-10-23T22:09:44.938Z,0.1
2022-10-23T22:11:47.952Z,0.4
2022-10-23T22:13:54.100Z,0.2
2022-10-23T22:15:57.110Z,0.2
2022-10-23T22:18:00.190Z,0.1
2022-10-23T22:22:06.221Z,0.3
2022-10-23T22:28:18.415Z,0.3
2022-10-23T22:30:21.444Z,1.6
2022-10-23T22:32:24.471Z,0.2
2022-10-23T22:34:51.430Z,0.1
2022-10-23T22:36:30.503Z,0
2022-10-23T22:40:36.619Z,0.3
2022-10-23T22:42:43.032Z,0.1
2022-10-23T22:44:45.705Z,0.6
2022-10-23T22:46:48.735Z,0.2
2022-10-23T22:48:51.761Z,0.3
2022-10-23T22:50:54.778Z,0.2
2022-10-23T22:52:57.810Z,0.1
2022-10-23T22:55:00.837Z,0.1
2022-10-23T22:57:06.958Z,0.5
2022-10-23T22:59:09.998Z,0.2
2022-10-23T23:01:13.113Z,0.7
2022-10-23T23:02:16.079Z,0
2022-10-23T23:06:22.144Z,0.1
2022-10-23T23:08:25.160Z,0.1
2022-10-23T23:10:31.303Z,0.1
2022-10-23T23:12:34.328Z,0.6
2022-10-23T23:14:37.360Z,0.3
2022-10-23T23:16:40.372Z,0
2022-10-23T23:18:43.400Z,0
2022-10-23T23:20:46.428Z,0.1
2022-10-23T23:24:55.581Z,0
2022-10-23T23:26:58.601Z,0.1
2022-10-23T23:29:01.613Z,0
2022-10-23T23:31:04.648Z,0.3
2022-10-23T23:33:07.671Z,0
2022-10-23T23:35:10.706Z,0.4
2022-10-23T23:37:13.708Z,0.1
2022-10-23T23:39:19.864Z,0.1
2022-10-23T23:41:22.883Z,0.2
2022-10-23T23:43:25.915Z,0.1
2022-10-23T23:45:28.958Z,0.6
2022-10-23T23:47:31.964Z,0.4
2022-10-23T23:49:34.990Z,0.2
2022-10-23T23:51:38.005Z,0.8
2022-10-23T23:53:44.304Z,0.4
2022-10-23T23:55:47.177Z,0.4
2022-10-23T23:57:50.202Z,0.6
